Terminal Aerodrome Forecast
Issued by NWS

Home | Current Version | Previous Version | Text Only | Print | Product List | Glossary On
Versions: 1 2 3 4 5 6 7 8 9 10 11 12 13 14 15
000
FTUS44 KEPZ 311700
TAFLRU
TAF
KLRU 311730Z 3118/0118 14008KT P6SM VCSH SCT070 BKN110
     FM312200 12007KT P6SM VCTS SCT060CB BKN100
      TEMPO 0101/0104 2SM TSRA SCT030CB OVC070
     FM010800 16007KT P6SM VCSH SCT030 BKN120
      TEMPO 0108/0112 5SM -SHRA BKN040=

USA.gov is the U.S. government's official web portal to all federal, state and local government web resources and services.